Flight Track Log - Related Links

Times and Time Zones

All times are in EDT time to prevent confusion due to time zone crossing. See the ASQ5958 flight status page for this flight to view local times or setup timezone preferences in your user account.

Time Position Orientation Groundspeed Altitude Reporting Facility
EDT Latitude Longitude Course Direction KTS MPH feet Rate Location/Type
Sun 02:43:46 PM 36.1953 -95.8633 75° East 164 189 1,300  Level Kansas City Center
Sun 02:44:53 PM 36.2119 -95.7886 75° East 217 250 3,600 1,806 Climbing Kansas City Center
Sun 02:45:19 PM 36.2197 -95.7689 64° Northeast 229 264 4,100 2,400 Climbing Kansas City Center
Sun 02:45:53 PM 36.2475 -95.7142 58° Northeast 272 313 6,000 2,323 Climbing Kansas City Center
Sun 02:46:21 PM 36.2569 -95.6911 63° Northeast 252 290 6,500 2,267 Climbing Kansas City Center
Sun 02:47:23 PM 36.3058 -95.5886 59° Northeast 283 326 9,400 2,146 Climbing Kansas City Center
Sun 02:48:24 PM 36.3492 -95.4958 60° Northeast 305 351 10,900 1,415 Climbing Kansas City Center
Sun 02:49:26 PM 36.3967 -95.3961 59° Northeast 345 397 12,300 1,403 Climbing Kansas City Center
Sun 02:50:28 PM 36.4469 -95.2886 60° Northeast 357 411 13,800 1,694 Climbing Kansas City Center
Sun 02:51:30 PM 36.5094 -95.1536 60° Northeast 367 422 15,800 1,694 Climbing Kansas City Center
Sun 02:52:32 PM 36.5611 -95.0425 60° Northeast 372 428 17,300 1,258 Climbing Kansas City Center
Sun 02:53:34 PM 36.6139 -94.9289 60° Northeast 376 433 18,400 1,210 Climbing Kansas City Center
Sun 02:54:36 PM 36.6675 -94.8131 60° Northeast 383 441 19,800 1,306 Climbing Kansas City Center
Sun 02:55:38 PM 36.7206 -94.6961 60° Northeast 386 444 21,100 1,258 Climbing Kansas City Center
Sun 02:56:40 PM 36.7758 -94.5769 60° Northeast 394 453 22,400 1,355 Climbing Kansas City Center
Sun 02:57:42 PM 36.8469 -94.4328 58° Northeast 404 465 23,900 1,355 Climbing Kansas City Center
Sun 02:58:44 PM 36.9278 -94.3397 43° Northeast 398 458 25,200 1,258 Climbing Kansas City Center
Sun 02:59:46 PM 37.0108 -94.2475 42° Northeast 397 457 26,500 1,258 Climbing Kansas City Center
Sun 03:00:48 PM 37.0944 -94.1561 41° Northeast 398 458 27,800 1,210 Climbing Kansas City Center
Sun 03:01:50 PM 37.1767 -94.0625 42° Northeast 397 457 29,000 1,161 Climbing Kansas City Center
Sun 03:02:52 PM 37.2592 -93.9711 41° Northeast 396 456 30,200 1,016 Climbing Kansas City Center
Sun 03:03:54 PM 37.3419 -93.8786 42° Northeast 397 457 31,100 1,016 Climbing Kansas City Center
Sun 03:04:56 PM 37.4425 -93.7631 42° Northeast 404 465 32,300 1,065 Climbing Kansas City Center
Sun 03:05:58 PM 37.5283 -93.6675 41° Northeast 408 470 33,300 968 Climbing Kansas City Center
Sun 03:07:00 PM 37.6136 -93.5703 42° Northeast 411 473 34,300 829 Climbing Kansas City Center
Sun 03:08:01 PM 37.6992 -93.4725 42° Northeast 411 473 35,000 341 Climbing Kansas City Center
Sun 03:09:03 PM 37.7872 -93.3728 42° Northeast 420 483 35,000  Level Kansas City Center
Sun 03:10:05 PM 37.8783 -93.2669 43° Northeast 434 499 35,000  Level Kansas City Center
Sun 03:11:07 PM 37.9744 -93.1575 42° Northeast 452 520 35,000  Level Kansas City Center
Sun 03:12:09 PM 38.0717 -93.0442 43° Northeast 464 534 35,000  Level Kansas City Center
Sun 03:13:11 PM 38.1706 -92.9303 42° Northeast 470 541 35,000  Level Kansas City Center
Sun 03:14:13 PM 38.2894 -92.7917 42° Northeast 476 548 35,000  Level Kansas City Center
Sun 03:15:15 PM 38.3844 -92.6767 43° Northeast 468 539 35,000  Level Kansas City Center
Sun 03:16:17 PM 38.4808 -92.5661 42° Northeast 464 534 35,000  Level Kansas City Center
Sun 03:17:18 PM 38.5753 -92.4544 43° Northeast 459 528 35,000  Level Kansas City Center
Sun 03:18:20 PM 38.6681 -92.3414 44° Northeast 458 527 35,000  Level Kansas City Center
Sun 03:19:22 PM 38.7617 -92.2314 42° Northeast 456 525 35,000  Level Kansas City Center
Sun 03:20:24 PM 38.8550 -92.1183 43° Northeast 458 527 35,000  Level Kansas City Center
Sun 03:21:26 PM 38.9492 -92.0053 43° Northeast 460 529 35,000  Level Kansas City Center
Sun 03:22:28 PM 39.0425 -91.8928 43° Northeast 459 528 35,000  Level Kansas City Center
Sun 03:23:30 PM 39.1558 -91.7558 43° Northeast 462 532 35,000  Level Kansas City Center
Sun 03:24:32 PM 39.2422 -91.6519 43° Northeast 464 534 35,000  Level Kansas City Center
Sun 03:25:33 PM 39.3392 -91.5361 43° Northeast 471 542 35,000  Level Kansas City Center
Sun 03:26:35 PM 39.4344 -91.4206 43° Northeast 470 541 35,000  Level Kansas City Center
Sun 03:27:37 PM 39.5283 -91.3047 44° Northeast 467 537 35,000  Level Kansas City Center
Sun 03:28:39 PM 39.6411 -91.1642 44° Northeast 467 537 35,000  Level Kansas City Center
Sun 03:29:41 PM 39.7361 -91.0511 42° Northeast 465 535 35,000  Level Kansas City Center
Sun 03:30:43 PM 39.8311 -90.9578 37° Northeast 464 534 35,000  Level Kansas City Center
Sun 03:31:44 PM 39.9317 -90.8550 38° Northeast 459 528 35,000 -49 Level Kansas City Center
Sun 03:32:46 PM 40.0333 -90.7547 37° Northeast 459 528 34,900 -968 Descending Kansas City Center
Sun 03:33:48 PM 40.1544 -90.6311 38° Northeast 460 529 33,000 -1,027 Descending Kansas City Center
Sun 03:34:37 PM 40.2356 -90.5486 38° Northeast 459 528 33,000  Level Chicago Center
Sun 03:35:38 PM 40.3261 -90.4256 46° Northeast 467 537 33,000  Level Chicago Center
Sun 03:36:40 PM 40.4150 -90.2992 47° Northeast 470 541 33,000  Level Chicago Center
Sun 03:37:42 PM 40.5014 -90.1761 47° Northeast 465 535 33,000  Level Chicago Center
Sun 03:38:44 PM 40.5900 -90.0517 47° Northeast 466 536 33,000  Level Chicago Center
Sun 03:39:46 PM 40.6947 -89.9025 47° Northeast 464 534 33,000 -1,016 Level Chicago Center
Sun 03:40:48 PM 40.7800 -89.7786 48° Northeast 459 528 30,900 -2,439 Descending Chicago Center
Sun 03:41:49 PM 40.8650 -89.6572 47° Northeast 454 522 28,000 -2,732 Descending Chicago Center
Sun 03:42:51 PM 40.9436 -89.5444 47° Northeast 452 520 25,300 -2,274 Descending Chicago Center
Sun 03:43:53 PM 41.0256 -89.4256 48° Northeast 437 503 23,300 -1,548 Descending Chicago Center
Sun 03:44:55 PM 41.1203 -89.2872 48° Northeast 424 488 22,100 -1,597 Descending Chicago Center
Sun 03:45:57 PM 41.2042 -89.1669 47° Northeast 421 484 20,000 -2,323 Descending Chicago Center
Sun 03:46:59 PM 41.2783 -89.0544 49° Northeast 407 468 17,300 -2,516 Descending Chicago Center
Sun 03:48:01 PM 41.3511 -88.9472 48° Northeast 396 456 14,800 -2,371 Descending Chicago Center
Sun 03:49:03 PM 41.4200 -88.8428 49° Northeast 375 432 12,400 -1,790 Descending Chicago Center
Sun 03:50:05 PM 41.4883 -88.7433 47° Northeast 366 421 11,100 -677 Descending Chicago Center
Sun 03:51:07 PM 41.5414 -88.6311 58° Northeast 358 412 11,000 -48 Descending Chicago Center
Sun 03:52:09 PM 41.5900 -88.5092 62° Northeast 368 423 11,000  Level Chicago Center
Sun 03:53:11 PM 41.6611 -88.3747 55° Northeast 368 423 11,000  Level Chicago Center
Sun 03:54:13 PM 41.7242 -88.2672 52° Northeast 366 421 11,000 -339 Level Chicago Center
Sun 03:55:15 PM 41.7850 -88.1633 52° Northeast 353 406 10,300 -919 Descending Chicago Center
Sun 03:56:17 PM 41.8322 -88.0822 52° Northeast 284 327 9,100 -1,403 Descending Chicago Center
Sun 03:57:19 PM 41.8769 -88.0008 54° Northeast 273 314 7,400 -1,379 Descending Chicago Center
Sun 03:57:44 PM 41.8833 -87.9500 80° East 276 318 7,100 -282 Descending Chicago TRACON
Sun 03:58:44 PM 41.8833 -87.8500 90° East 235 270 7,000 -842 Descending Chicago TRACON
Sun 03:59:38 PM 41.8833 -87.7833 90° East 205 236 5,500 -1,474 Descending Chicago TRACON
Sun 04:00:38 PM 41.9167 -87.7333 48° Northeast 199 229 4,200 -1,150 Descending Chicago TRACON
Sun 04:01:38 PM 41.9500 -87.7667 323° Northwest 171 197 3,200 -1,150 Descending Chicago TRACON
Sun 04:02:38 PM 41.9667 -87.8167 294° West 140 161 1,900 -1,091 Descending Chicago TRACON
Sun 04:03:39 PM 41.9667 -87.8667 270° West 139 160 1,000 -885 Descending Chicago TRACON
Sun 04:05:00 PM 41.9667 -87.9000 North  Level FlightAware Approximate

Login

Don't have an account? Register now (free) for customized features, flight alerts, and more!